sensor_id;sensor_type;location;lat;lon;timestamp;pressure;altitude;pressure_sealevel;temperature;humidity
77017;BME280;65949;53.132;17.930;2023-03-13T00:01:39;100287.39;;;2.45;66.36
77017;BME280;65949;53.132;17.930;2023-03-13T00:04:06;100280.70;;;2.44;66.46
77017;BME280;65949;53.132;17.930;2023-03-13T00:06:35;100267.15;;;2.43;66.68
77017;BME280;65949;53.132;17.930;2023-03-13T00:09:03;100266.70;;;2.43;66.60
77017;BME280;65949;53.132;17.930;2023-03-13T00:11:31;100270.72;;;2.41;66.70
77017;BME280;65949;53.132;17.930;2023-03-13T00:14:00;100274.02;;;2.39;66.79
77017;BME280;65949;53.132;17.930;2023-03-13T00:16:28;100272.64;;;2.38;66.85
77017;BME280;65949;53.132;17.930;2023-03-13T00:18:56;100276.23;;;2.38;67.10
77017;BME280;65949;53.132;17.930;2023-03-13T00:21:25;100269.88;;;2.37;67.09
77017;BME280;65949;53.132;17.930;2023-03-13T00:23:53;100264.27;;;2.40;67.41
77017;BME280;65949;53.132;17.930;2023-03-13T00:26:22;100260.85;;;2.44;67.22
77017;BME280;65949;53.132;17.930;2023-03-13T00:28:50;100258.02;;;2.47;67.36
77017;BME280;65949;53.132;17.930;2023-03-13T00:31:28;100263.71;;;2.52;67.53
77017;BME280;65949;53.132;17.930;2023-03-13T00:34:00;100263.58;;;2.54;67.88
77017;BME280;65949;53.132;17.930;2023-03-13T00:36:31;100249.89;;;2.55;67.99
77017;BME280;65949;53.132;17.930;2023-03-13T00:38:59;100241.60;;;2.55;68.18
77017;BME280;65949;53.132;17.930;2023-03-13T00:41:28;100239.35;;;2.56;68.40
77017;BME280;65949;53.132;17.930;2023-03-13T00:43:56;100238.84;;;2.55;68.33
77017;BME280;65949;53.132;17.930;2023-03-13T00:46:25;100240.23;;;2.54;68.38
77017;BME280;65949;53.132;17.930;2023-03-13T00:48:52;100235.49;;;2.52;68.59
77017;BME280;65949;53.132;17.930;2023-03-13T00:51:20;100235.67;;;2.51;68.65
77017;BME280;65949;53.132;17.930;2023-03-13T00:53:49;100236.15;;;2.50;68.69
77017;BME280;65949;53.132;17.930;2023-03-13T00:56:17;100229.90;;;2.48;68.69
77017;BME280;65949;53.132;17.930;2023-03-13T00:58:45;100229.24;;;2.47;68.77
77017;BME280;65949;53.132;17.930;2023-03-13T01:01:24;100233.73;;;2.45;69.05
77017;BME280;65949;53.132;17.930;2023-03-13T01:03:53;100232.84;;;2.45;69.51
77017;BME280;65949;53.132;17.930;2023-03-13T01:06:23;100223.80;;;2.45;69.92
77017;BME280;65949;53.132;17.930;2023-03-13T01:08:50;100220.98;;;2.46;69.95
77017;BME280;65949;53.132;17.930;2023-03-13T01:11:20;100220.40;;;2.45;69.99
77017;BME280;65949;53.132;17.930;2023-03-13T01:13:48;100219.24;;;2.46;69.89
77017;BME280;65949;53.132;17.930;2023-03-13T01:16:17;100220.13;;;2.48;69.87
77017;BME280;65949;53.132;17.930;2023-03-13T01:18:47;100217.40;;;2.49;70.00
77017;BME280;65949;53.132;17.930;2023-03-13T01:21:16;100218.30;;;2.50;70.12
77017;BME280;65949;53.132;17.930;2023-03-13T01:23:46;100216.80;;;2.50;70.57
77017;BME280;65949;53.132;17.930;2023-03-13T01:26:12;100217.61;;;2.48;70.65
77017;BME280;65949;53.132;17.930;2023-03-13T01:28:39;100220.96;;;2.45;70.90
77017;BME280;65949;53.132;17.930;2023-03-13T01:31:11;100212.11;;;2.43;70.90
77017;BME280;65949;53.132;17.930;2023-03-13T01:33:39;100212.07;;;2.42;71.18
77017;BME280;65949;53.132;17.930;2023-03-13T01:36:06;100209.15;;;2.41;71.19
77017;BME280;65949;53.132;17.930;2023-03-13T01:38:34;100206.39;;;2.38;71.75
77017;BME280;65949;53.132;17.930;2023-03-13T01:41:02;100210.16;;;2.37;71.66
77017;BME280;65949;53.132;17.930;2023-03-13T01:43:31;100204.91;;;2.40;71.51
77017;BME280;65949;53.132;17.930;2023-03-13T01:46:12;100203.13;;;2.44;71.74
77017;BME280;65949;53.132;17.930;2023-03-13T01:51:34;100188.95;;;2.51;71.60
77017;BME280;65949;53.132;17.930;2023-03-13T01:56:36;100183.17;;;2.52;72.12
77017;BME280;65949;53.132;17.930;2023-03-13T01:59:05;100186.89;;;2.54;72.27
77017;BME280;65949;53.132;17.930;2023-03-13T02:01:34;100186.41;;;2.55;72.30
77017;BME280;65949;53.132;17.930;2023-03-13T02:04:04;100191.58;;;2.56;72.56
77017;BME280;65949;53.132;17.930;2023-03-13T02:06:33;100194.77;;;2.53;72.99
77017;BME280;65949;53.132;17.930;2023-03-13T02:09:05;100191.33;;;2.48;73.29
77017;BME280;65949;53.132;17.930;2023-03-13T02:14:35;100180.95;;;2.34;74.37
77017;BME280;65949;53.132;17.930;2023-03-13T02:17:04;100174.52;;;2.27;74.06
77017;BME280;65949;53.132;17.930;2023-03-13T02:19:42;100168.69;;;2.30;74.10
77017;BME280;65949;53.132;17.930;2023-03-13T02:27:13;100171.67;;;2.33;74.71
77017;BME280;65949;53.132;17.930;2023-03-13T02:29:41;100168.77;;;2.36;75.04
77017;BME280;65949;53.132;17.930;2023-03-13T02:32:08;100157.95;;;2.38;75.05
77017;BME280;65949;53.132;17.930;2023-03-13T02:34:38;100155.86;;;2.37;75.08
77017;BME280;65949;53.132;17.930;2023-03-13T02:37:06;100164.45;;;2.34;75.31
77017;BME280;65949;53.132;17.930;2023-03-13T02:39:38;100164.70;;;2.34;75.62
77017;BME280;65949;53.132;17.930;2023-03-13T02:42:08;100162.64;;;2.34;75.59
77017;BME280;65949;53.132;17.930;2023-03-13T02:44:38;100157.50;;;2.30;75.83
77017;BME280;65949;53.132;17.930;2023-03-13T02:47:06;100152.89;;;2.28;75.81
77017;BME280;65949;53.132;17.930;2023-03-13T02:49:35;100147.29;;;2.25;75.93
77017;BME280;65949;53.132;17.930;2023-03-13T02:52:26;100133.73;;;2.25;76.16
77017;BME280;65949;53.132;17.930;2023-03-13T02:54:57;100125.77;;;2.29;76.13
77017;BME280;65949;53.132;17.930;2023-03-13T02:57:26;100127.44;;;2.30;76.19
77017;BME280;65949;53.132;17.930;2023-03-13T02:59:53;100135.30;;;2.30;76.47
77017;BME280;65949;53.132;17.930;2023-03-13T03:02:21;100143.84;;;2.31;76.39
77017;BME280;65949;53.132;17.930;2023-03-13T03:04:48;100151.41;;;2.35;76.40
77017;BME280;65949;53.132;17.930;2023-03-13T03:07:15;100147.64;;;2.41;76.28
77017;BME280;65949;53.132;17.930;2023-03-13T03:09:42;100150.04;;;2.47;76.51
77017;BME280;65949;53.132;17.930;2023-03-13T03:12:12;100147.48;;;2.49;76.57
77017;BME280;65949;53.132;17.930;2023-03-13T03:14:39;100150.45;;;2.52;76.53
77017;BME280;65949;53.132;17.930;2023-03-13T03:17:06;100153.38;;;2.55;76.66
77017;BME280;65949;53.132;17.930;2023-03-13T03:19:32;100154.35;;;2.51;76.63
77017;BME280;65949;53.132;17.930;2023-03-13T03:21:59;100150.59;;;2.45;77.08
77017;BME280;65949;53.132;17.930;2023-03-13T03:24:26;100151.23;;;2.42;77.24
77017;BME280;65949;53.132;17.930;2023-03-13T03:26:53;100153.17;;;2.40;77.18
77017;BME280;65949;53.132;17.930;2023-03-13T03:29:24;100146.86;;;2.41;77.23
77017;BME280;65949;53.132;17.930;2023-03-13T03:31:53;100138.77;;;2.40;77.44
77017;BME280;65949;53.132;17.930;2023-03-13T03:34:21;100137.59;;;2.39;77.69
77017;BME280;65949;53.132;17.930;2023-03-13T03:36:48;100139.69;;;2.40;77.99
77017;BME280;65949;53.132;17.930;2023-03-13T03:39:14;100131.52;;;2.43;78.20
77017;BME280;65949;53.132;17.930;2023-03-13T03:41:41;100122.60;;;2.47;78.26
77017;BME280;65949;53.132;17.930;2023-03-13T03:44:08;100115.40;;;2.48;78.23
77017;BME280;65949;53.132;17.930;2023-03-13T03:46:43;100103.53;;;2.52;78.22
77017;BME280;65949;53.132;17.930;2023-03-13T03:49:10;100101.91;;;2.56;78.19
77017;BME280;65949;53.132;17.930;2023-03-13T03:51:36;100099.42;;;2.58;78.20
77017;BME280;65949;53.132;17.930;2023-03-13T03:54:03;100097.29;;;2.60;78.44
77017;BME280;65949;53.132;17.930;2023-03-13T03:56:30;100097.48;;;2.60;78.41
77017;BME280;65949;53.132;17.930;2023-03-13T03:58:57;100094.52;;;2.59;78.31
77017;BME280;65949;53.132;17.930;2023-03-13T04:01:38;100091.30;;;2.60;78.56
77017;BME280;65949;53.132;17.930;2023-03-13T04:04:05;100094.11;;;2.60;78.74
77017;BME280;65949;53.132;17.930;2023-03-13T04:06:31;100089.02;;;2.61;78.86
77017;BME280;65949;53.132;17.930;2023-03-13T04:08:59;100082.63;;;2.65;78.94
77017;BME280;65949;53.132;17.930;2023-03-13T04:11:27;100082.16;;;2.67;79.09
77017;BME280;65949;53.132;17.930;2023-03-13T04:13:55;100078.52;;;2.71;79.10
77017;BME280;65949;53.132;17.930;2023-03-13T04:16:22;100077.80;;;2.71;79.09
77017;BME280;65949;53.132;17.930;2023-03-13T04:18:48;100074.53;;;2.74;79.08
77017;BME280;65949;53.132;17.930;2023-03-13T04:21:16;100075.46;;;2.74;79.35
77017;BME280;65949;53.132;17.930;2023-03-13T04:23:53;100074.39;;;2.76;79.40
77017;BME280;65949;53.132;17.930;2023-03-13T04:26:20;100069.54;;;2.77;79.35
77017;BME280;65949;53.132;17.930;2023-03-13T04:28:50;100068.50;;;2.75;79.50
77017;BME280;65949;53.132;17.930;2023-03-13T04:31:21;100070.71;;;2.75;79.55
77017;BME280;65949;53.132;17.930;2023-03-13T04:34:21;100077.02;;;2.80;79.27
77017;BME280;65949;53.132;17.930;2023-03-13T04:36:50;100074.06;;;2.83;79.60
77017;BME280;65949;53.132;17.930;2023-03-13T04:39:35;100070.27;;;2.87;79.80
77017;BME280;65949;53.132;17.930;2023-03-13T04:42:28;100069.38;;;2.90;79.74
77017;BME280;65949;53.132;17.930;2023-03-13T04:44:57;100068.65;;;2.92;79.56
77017;BME280;65949;53.132;17.930;2023-03-13T04:47:49;100064.40;;;2.96;79.92
77017;BME280;65949;53.132;17.930;2023-03-13T04:50:36;100063.81;;;3.03;79.76
77017;BME280;65949;53.132;17.930;2023-03-13T04:53:09;100064.35;;;3.06;79.74
77017;BME280;65949;53.132;17.930;2023-03-13T04:55:48;100058.70;;;3.06;79.85
77017;BME280;65949;53.132;17.930;2023-03-13T04:58:47;100058.21;;;3.09;79.77
77017;BME280;65949;53.132;17.930;2023-03-13T05:01:28;100058.76;;;3.13;79.83
77017;BME280;65949;53.132;17.930;2023-03-13T05:04:13;100054.06;;;3.14;79.98
77017;BME280;65949;53.132;17.930;2023-03-13T05:06:57;100047.44;;;3.19;79.81
77017;BME280;65949;53.132;17.930;2023-03-13T05:09:57;100046.16;;;3.23;79.90
77017;BME280;65949;53.132;17.930;2023-03-13T05:12:44;100043.32;;;3.27;79.92
77017;BME280;65949;53.132;17.930;2023-03-13T05:15:33;100039.77;;;3.31;80.25
77017;BME280;65949;53.132;17.930;2023-03-13T05:18:15;100032.40;;;3.35;80.30
77017;BME280;65949;53.132;17.930;2023-03-13T05:21:02;100026.71;;;3.38;80.41
77017;BME280;65949;53.132;17.930;2023-03-13T05:23:38;100018.39;;;3.41;80.19
77017;BME280;65949;53.132;17.930;2023-03-13T05:26:24;100015.98;;;3.44;80.35
77017;BME280;65949;53.132;17.930;2023-03-13T05:29:11;100013.80;;;3.43;80.67
77017;BME280;65949;53.132;17.930;2023-03-13T05:31:54;100015.17;;;3.44;80.58
77017;BME280;65949;53.132;17.930;2023-03-13T05:34:44;100017.70;;;3.45;80.49
77017;BME280;65949;53.132;17.930;2023-03-13T05:37:29;100015.61;;;3.50;80.67
77017;BME280;65949;53.132;17.930;2023-03-13T05:40:16;100009.51;;;3.55;80.61
77017;BME280;65949;53.132;17.930;2023-03-13T05:43:06;100005.82;;;3.62;80.50
77017;BME280;65949;53.132;17.930;2023-03-13T05:46:02;100010.09;;;3.68;80.51
77017;BME280;65949;53.132;17.930;2023-03-13T05:49:04;100005.92;;;3.73;80.43
77017;BME280;65949;53.132;17.930;2023-03-13T05:51:58;100009.69;;;3.78;80.80
77017;BME280;65949;53.132;17.930;2023-03-13T05:54:36;100009.72;;;3.82;80.70
77017;BME280;65949;53.132;17.930;2023-03-13T05:57:21;100014.64;;;3.85;81.06
77017;BME280;65949;53.132;17.930;2023-03-13T06:00:12;100012.29;;;3.91;80.72
77017;BME280;65949;53.132;17.930;2023-03-13T06:02:58;100015.05;;;3.97;81.03
77017;BME280;65949;53.132;17.930;2023-03-13T06:05:32;100010.86;;;4.02;81.02
77017;BME280;65949;53.132;17.930;2023-03-13T06:08:00;100009.91;;;4.09;80.77
77017;BME280;65949;53.132;17.930;2023-03-13T06:10:28;99999.06;;;4.15;81.02
77017;BME280;65949;53.132;17.930;2023-03-13T06:12:55;99991.16;;;4.20;80.91
77017;BME280;65949;53.132;17.930;2023-03-13T06:15:24;99989.65;;;4.24;81.39
77017;BME280;65949;53.132;17.930;2023-03-13T06:18:13;99989.97;;;4.30;81.27
77017;BME280;65949;53.132;17.930;2023-03-13T06:20:40;99981.84;;;4.36;81.46
77017;BME280;65949;53.132;17.930;2023-03-13T06:23:07;99981.25;;;4.40;81.09
77017;BME280;65949;53.132;17.930;2023-03-13T06:25:34;99977.48;;;4.44;81.18
77017;BME280;65949;53.132;17.930;2023-03-13T06:28:01;99977.37;;;4.49;81.16
77017;BME280;65949;53.132;17.930;2023-03-13T06:30:27;99973.67;;;4.53;81.20
77017;BME280;65949;53.132;17.930;2023-03-13T06:32:54;99967.61;;;4.54;81.66
77017;BME280;65949;53.132;17.930;2023-03-13T06:35:20;99966.39;;;4.58;81.37
77017;BME280;65949;53.132;17.930;2023-03-13T06:37:47;99964.42;;;4.66;81.80
77017;BME280;65949;53.132;17.930;2023-03-13T06:40:13;99962.29;;;4.72;81.93
77017;BME280;65949;53.132;17.930;2023-03-13T06:42:40;99965.65;;;4.79;81.83
77017;BME280;65949;53.132;17.930;2023-03-13T06:45:07;99962.91;;;4.85;81.65
77017;BME280;65949;53.132;17.930;2023-03-13T06:47:34;99959.13;;;4.92;81.81
77017;BME280;65949;53.132;17.930;2023-03-13T06:50:01;99959.21;;;5.00;81.66
77017;BME280;65949;53.132;17.930;2023-03-13T06:52:27;99953.12;;;5.06;81.26
77017;BME280;65949;53.132;17.930;2023-03-13T06:54:54;99950.12;;;5.15;81.41
77017;BME280;65949;53.132;17.930;2023-03-13T06:57:21;99941.59;;;5.27;81.29
77017;BME280;65949;53.132;17.930;2023-03-13T06:59:47;99938.95;;;5.37;81.19
77017;BME280;65949;53.132;17.930;2023-03-13T07:02:14;99935.55;;;5.48;81.17
77017;BME280;65949;53.132;17.930;2023-03-13T07:04:41;99932.67;;;5.59;80.97
77017;BME280;65949;53.132;17.930;2023-03-13T07:07:08;99926.69;;;5.71;80.86
77017;BME280;65949;53.132;17.930;2023-03-13T07:09:35;99918.06;;;5.85;80.63
77017;BME280;65949;53.132;17.930;2023-03-13T07:12:02;99921.14;;;5.94;80.46
77017;BME280;65949;53.132;17.930;2023-03-13T07:14:30;99918.61;;;6.07;80.47
77017;BME280;65949;53.132;17.930;2023-03-13T07:16:58;99917.17;;;6.21;80.08
77017;BME280;65949;53.132;17.930;2023-03-13T07:19:25;99905.94;;;6.34;79.92
77017;BME280;65949;53.132;17.930;2023-03-13T07:21:52;99902.02;;;6.49;79.71
77017;BME280;65949;53.132;17.930;2023-03-13T07:24:19;99892.40;;;6.61;79.55
77017;BME280;65949;53.132;17.930;2023-03-13T07:26:46;99889.23;;;6.70;79.43
77017;BME280;65949;53.132;17.930;2023-03-13T07:29:13;99882.83;;;6.76;79.46
77017;BME280;65949;53.132;17.930;2023-03-13T07:31:39;99875.94;;;6.84;78.93
77017;BME280;65949;53.132;17.930;2023-03-13T07:34:06;99863.43;;;6.94;79.02
77017;BME280;65949;53.132;17.930;2023-03-13T07:36:32;99864.45;;;7.05;78.75
77017;BME280;65949;53.132;17.930;2023-03-13T07:39:00;99864.14;;;7.16;78.47
77017;BME280;65949;53.132;17.930;2023-03-13T07:41:27;99864.64;;;7.25;78.29
77017;BME280;65949;53.132;17.930;2023-03-13T07:43:55;99865.11;;;7.32;78.13
77017;BME280;65949;53.132;17.930;2023-03-13T07:46:22;99860.70;;;7.39;78.38
77017;BME280;65949;53.132;17.930;2023-03-13T07:48:49;99861.01;;;7.46;77.77
77017;BME280;65949;53.132;17.930;2023-03-13T07:51:18;99858.65;;;7.52;77.76
77017;BME280;65949;53.132;17.930;2023-03-13T07:53:46;99857.20;;;7.55;77.56
77017;BME280;65949;53.132;17.930;2023-03-13T07:56:18;99852.31;;;7.60;77.34
77017;BME280;65949;53.132;17.930;2023-03-13T07:58:46;99847.79;;;7.67;77.30
77017;BME280;65949;53.132;17.930;2023-03-13T08:01:24;99843.88;;;7.72;77.12
77017;BME280;65949;53.132;17.930;2023-03-13T08:03:52;99839.58;;;7.78;76.56
77017;BME280;65949;53.132;17.930;2023-03-13T08:06:24;99836.61;;;7.86;76.27
77017;BME280;65949;53.132;17.930;2023-03-13T08:08:55;99832.48;;;7.92;76.15
77017;BME280;65949;53.132;17.930;2023-03-13T08:11:24;99827.67;;;7.97;75.90
77017;BME280;65949;53.132;17.930;2023-03-13T08:13:52;99828.25;;;7.98;75.71
77017;BME280;65949;53.132;17.930;2023-03-13T08:16:21;99826.38;;;7.96;75.73
77017;BME280;65949;53.132;17.930;2023-03-13T08:18:50;99825.18;;;7.96;76.08
77017;BME280;65949;53.132;17.930;2023-03-13T08:21:20;99821.86;;;7.96;75.65
77017;BME280;65949;53.132;17.930;2023-03-13T08:23:47;99812.94;;;7.95;75.48
77017;BME280;65949;53.132;17.930;2023-03-13T08:26:16;99808.73;;;7.97;75.58
77017;BME280;65949;53.132;17.930;2023-03-13T08:28:44;99807.13;;;8.00;75.47
77017;BME280;65949;53.132;17.930;2023-03-13T08:31:14;99804.54;;;8.01;75.29
77017;BME280;65949;53.132;17.930;2023-03-13T08:33:43;99804.08;;;8.00;75.14
77017;BME280;65949;53.132;17.930;2023-03-13T08:36:23;99802.02;;;7.95;75.42
77017;BME280;65949;53.132;17.930;2023-03-13T08:38:52;99801.91;;;7.90;75.57
77017;BME280;65949;53.132;17.930;2023-03-13T08:41:22;99803.20;;;7.87;75.47
77017;BME280;65949;53.132;17.930;2023-03-13T08:43:53;99796.61;;;7.85;75.93
77017;BME280;65949;53.132;17.930;2023-03-13T08:46:20;99795.05;;;7.86;75.84
77017;BME280;65949;53.132;17.930;2023-03-13T08:48:51;99796.05;;;7.89;75.90
77017;BME280;65949;53.132;17.930;2023-03-13T08:51:21;99790.09;;;7.92;75.82
77017;BME280;65949;53.132;17.930;2023-03-13T08:53:49;99786.73;;;7.99;76.13
77017;BME280;65949;53.132;17.930;2023-03-13T08:56:18;99785.30;;;8.05;75.89
77017;BME280;65949;53.132;17.930;2023-03-13T08:58:52;99781.52;;;8.09;76.15
77017;BME280;65949;53.132;17.930;2023-03-13T09:01:20;99779.40;;;8.12;76.35
77017;BME280;65949;53.132;17.930;2023-03-13T09:03:47;99771.56;;;8.15;76.47
77017;BME280;65949;53.132;17.930;2023-03-13T09:06:14;99768.56;;;8.17;76.47
77017;BME280;65949;53.132;17.930;2023-03-13T09:08:41;99763.69;;;8.17;76.57
77017;BME280;65949;53.132;17.930;2023-03-13T09:11:13;99757.20;;;8.16;76.82
77017;BME280;65949;53.132;17.930;2023-03-13T09:13:43;99755.06;;;8.19;76.83
77017;BME280;65949;53.132;17.930;2023-03-13T09:16:12;99743.21;;;8.22;76.81
77017;BME280;65949;53.132;17.930;2023-03-13T09:18:40;99741.14;;;8.24;77.14
77017;BME280;65949;53.132;17.930;2023-03-13T09:21:09;99741.82;;;8.28;76.99
77017;BME280;65949;53.132;17.930;2023-03-13T09:23:37;99732.20;;;8.39;77.15
77017;BME280;65949;53.132;17.930;2023-03-13T09:26:05;99730.55;;;8.43;76.97
77017;BME280;65949;53.132;17.930;2023-03-13T09:28:32;99731.18;;;8.46;76.97
77017;BME280;65949;53.132;17.930;2023-03-13T09:31:21;99725.71;;;8.49;76.76
77017;BME280;65949;53.132;17.930;2023-03-13T09:33:48;99723.80;;;8.52;77.16
77017;BME280;65949;53.132;17.930;2023-03-13T09:36:16;99719.08;;;8.55;77.14
77017;BME280;65949;53.132;17.930;2023-03-13T09:38:43;99714.09;;;8.58;76.99
77017;BME280;65949;53.132;17.930;2023-03-13T09:43:50;99708.10;;;8.55;77.06
77017;BME280;65949;53.132;17.930;2023-03-13T09:49:15;99681.91;;;8.67;77.10
77017;BME280;65949;53.132;17.930;2023-03-13T09:51:50;99675.98;;;8.78;76.95
77017;BME280;65949;53.132;17.930;2023-03-13T09:54:31;99669.55;;;8.86;76.85
77017;BME280;65949;53.132;17.930;2023-03-13T09:57:12;99662.40;;;8.95;76.63
77017;BME280;65949;53.132;17.930;2023-03-13T09:59:50;99660.61;;;9.06;76.54
77017;BME280;65949;53.132;17.930;2023-03-13T10:02:34;99653.81;;;9.15;76.52
77017;BME280;65949;53.132;17.930;2023-03-13T10:07:47;99648.88;;;9.34;76.12
77017;BME280;65949;53.132;17.930;2023-03-13T10:13:11;99640.92;;;9.44;75.31
77017;BME280;65949;53.132;17.930;2023-03-13T10:16:06;99639.21;;;9.44;75.04
77017;BME280;65949;53.132;17.930;2023-03-13T10:18:36;99633.82;;;9.41;75.01
77017;BME280;65949;53.132;17.930;2023-03-13T10:21:17;99633.80;;;9.36;75.13
77017;BME280;65949;53.132;17.930;2023-03-13T10:23:56;99623.67;;;9.31;75.23
77017;BME280;65949;53.132;17.930;2023-03-13T10:26:31;99617.40;;;9.31;75.37
77017;BME280;65949;53.132;17.930;2023-03-13T10:31:59;99614.92;;;9.25;75.48
77017;BME280;65949;53.132;17.930;2023-03-13T10:34:28;99607.11;;;9.27;75.39
77017;BME280;65949;53.132;17.930;2023-03-13T10:36:59;99604.70;;;9.31;75.23
77017;BME280;65949;53.132;17.930;2023-03-13T10:39:28;99597.98;;;9.34;75.10
77017;BME280;65949;53.132;17.930;2023-03-13T10:42:08;99589.35;;;9.41;75.13
77017;BME280;65949;53.132;17.930;2023-03-13T10:44:37;99589.67;;;9.47;75.20
77017;BME280;65949;53.132;17.930;2023-03-13T10:47:05;99586.70;;;9.47;75.02
77017;BME280;65949;53.132;17.930;2023-03-13T10:49:32;99581.23;;;9.40;75.08
77017;BME280;65949;53.132;17.930;2023-03-13T10:52:01;99573.84;;;9.34;75.09
77017;BME280;65949;53.132;17.930;2023-03-13T10:54:31;99572.66;;;9.32;75.00
77017;BME280;65949;53.132;17.930;2023-03-13T10:57:27;99564.48;;;9.34;74.90
77017;BME280;65949;53.132;17.930;2023-03-13T10:59:55;99563.01;;;9.38;75.09
77017;BME280;65949;53.132;17.930;2023-03-13T11:02:35;99561.98;;;9.41;75.20
77017;BME280;65949;53.132;17.930;2023-03-13T11:07:52;99562.77;;;9.41;75.55
77017;BME280;65949;53.132;17.930;2023-03-13T11:10:24;99560.16;;;9.34;75.73
77017;BME280;65949;53.132;17.930;2023-03-13T11:12:55;99550.44;;;9.25;76.16
77017;BME280;65949;53.132;17.930;2023-03-13T11:15:38;99542.83;;;9.20;76.40
77017;BME280;65949;53.132;17.930;2023-03-13T11:20:39;99531.48;;;9.21;76.75
77017;BME280;65949;53.132;17.930;2023-03-13T11:23:23;99524.11;;;9.21;76.93
77017;BME280;65949;53.132;17.930;2023-03-13T11:26:15;99524.15;;;9.23;76.93
77017;BME280;65949;53.132;17.930;2023-03-13T11:29:14;99519.27;;;9.21;77.22
77017;BME280;65949;53.132;17.930;2023-03-13T11:31:48;99511.13;;;9.19;77.38
77017;BME280;65949;53.132;17.930;2023-03-13T11:34:43;99504.14;;;9.15;77.51
77017;BME280;65949;53.132;17.930;2023-03-13T11:37:15;99496.14;;;9.12;78.06
77017;BME280;65949;53.132;17.930;2023-03-13T11:49:03;99469.00;;;9.14;78.66
77017;BME280;65949;53.132;17.930;2023-03-13T11:54:28;99456.10;;;9.15;78.69
77017;BME280;65949;53.132;17.930;2023-03-13T11:56:58;99451.21;;;9.14;78.79
77017;BME280;65949;53.132;17.930;2023-03-13T11:59:34;99440.20;;;9.15;78.72
77017;BME280;65949;53.132;17.930;2023-03-13T12:02:29;99440.32;;;9.12;78.80
77017;BME280;65949;53.132;17.930;2023-03-13T12:05:00;99439.98;;;9.07;79.04
77017;BME280;65949;53.132;17.930;2023-03-13T12:07:46;99435.02;;;9.05;79.06
77017;BME280;65949;53.132;17.930;2023-03-13T12:10:20;99434.20;;;9.01;79.30
77017;BME280;65949;53.132;17.930;2023-03-13T12:12:53;99442.29;;;8.96;79.28
77017;BME280;65949;53.132;17.930;2023-03-13T12:15:26;99432.60;;;8.93;79.52
77017;BME280;65949;53.132;17.930;2023-03-13T12:18:16;99435.13;;;8.88;79.61
77017;BME280;65949;53.132;17.930;2023-03-13T12:20:50;99436.29;;;8.85;79.86
77017;BME280;65949;53.132;17.930;2023-03-13T12:26:18;99422.50;;;8.96;80.14
77017;BME280;65949;53.132;17.930;2023-03-13T12:31:41;99416.92;;;8.97;80.34
77017;BME280;65949;53.132;17.930;2023-03-13T12:34:38;99413.13;;;8.97;80.46
77017;BME280;65949;53.132;17.930;2023-03-13T12:40:34;99393.26;;;8.94;80.93
77017;BME280;65949;53.132;17.930;2023-03-13T12:43:10;99391.09;;;8.91;81.16
77017;BME280;65949;53.132;17.930;2023-03-13T12:46:26;99382.46;;;8.91;81.48
77017;BME280;65949;53.132;17.930;2023-03-13T12:51:40;99374.36;;;8.92;81.53
77017;BME280;65949;53.132;17.930;2023-03-13T12:57:19;99359.91;;;8.99;81.48
77017;BME280;65949;53.132;17.930;2023-03-13T12:59:52;99356.81;;;9.02;81.69
77017;BME280;65949;53.132;17.930;2023-03-13T13:02:23;99359.73;;;9.02;81.71
77017;BME280;65949;53.132;17.930;2023-03-13T13:04:52;99355.65;;;9.03;81.62
77017;BME280;65949;53.132;17.930;2023-03-13T13:07:44;99349.23;;;9.06;81.71
77017;BME280;65949;53.132;17.930;2023-03-13T13:12:43;99348.80;;;9.09;81.80
77017;BME280;65949;53.132;17.930;2023-03-13T13:15:26;99347.45;;;9.14;81.79
77017;BME280;65949;53.132;17.930;2023-03-13T13:18:13;99333.73;;;9.25;81.60
77017;BME280;65949;53.132;17.930;2023-03-13T13:20:48;99327.35;;;9.39;81.56
77017;BME280;65949;53.132;17.930;2023-03-13T13:37:23;99316.33;;;9.62;81.60
77017;BME280;65949;53.132;17.930;2023-03-13T13:39:52;99309.53;;;9.69;81.44
77017;BME280;65949;53.132;17.930;2023-03-13T13:47:43;99299.04;;;9.72;81.61
77017;BME280;65949;53.132;17.930;2023-03-13T13:50:22;99304.21;;;9.67;81.74
77017;BME280;65949;53.132;17.930;2023-03-13T13:52:50;99312.29;;;9.60;82.03
77017;BME280;65949;53.132;17.930;2023-03-13T13:58:04;99318.95;;;9.60;81.98
77017;BME280;65949;53.132;17.930;2023-03-13T14:00:38;99308.34;;;9.60;82.17
77017;BME280;65949;53.132;17.930;2023-03-13T14:03:19;99314.69;;;9.60;82.29
77017;BME280;65949;53.132;17.930;2023-03-13T14:05:49;99312.39;;;9.61;82.34
77017;BME280;65949;53.132;17.930;2023-03-13T14:08:23;99302.98;;;9.64;82.25
77017;BME280;65949;53.132;17.930;2023-03-13T14:11:03;99294.88;;;9.63;82.57
77017;BME280;65949;53.132;17.930;2023-03-13T14:13:30;99300.99;;;9.60;82.57
77017;BME280;65949;53.132;17.930;2023-03-13T14:16:17;99292.73;;;9.59;82.57
77017;BME280;65949;53.132;17.930;2023-03-13T14:18:47;99292.88;;;9.61;82.80
77017;BME280;65949;53.132;17.930;2023-03-13T14:21:13;99282.92;;;9.66;82.70
77017;BME280;65949;53.132;17.930;2023-03-13T14:23:42;99276.86;;;9.69;82.69
77017;BME280;65949;53.132;17.930;2023-03-13T14:26:15;99278.84;;;9.72;82.65
77017;BME280;65949;53.132;17.930;2023-03-13T14:28:49;99272.51;;;9.72;82.65
77017;BME280;65949;53.132;17.930;2023-03-13T14:31:23;99278.43;;;9.75;82.63
77017;BME280;65949;53.132;17.930;2023-03-13T14:33:50;99277.08;;;9.80;82.47
77017;BME280;65949;53.132;17.930;2023-03-13T14:36:17;99272.28;;;9.84;82.63
77017;BME280;65949;53.132;17.930;2023-03-13T14:38:55;99273.00;;;9.86;82.58
77017;BME280;65949;53.132;17.930;2023-03-13T14:41:31;99269.04;;;9.87;82.61
77017;BME280;65949;53.132;17.930;2023-03-13T14:44:03;99268.81;;;9.88;82.65
77017;BME280;65949;53.132;17.930;2023-03-13T14:46:33;99264.31;;;10.00;82.45
77017;BME280;65949;53.132;17.930;2023-03-13T14:49:06;99260.04;;;10.04;82.36